Terminal Aerodrome Forecast
Issued by NWS Atlanta, GA

Home | Current Version | Previous Version | Text Only | Print | Product List | Glossary On
Versions: 1 2 3 4 5 6 7 8 9 10 11 12 13 14 15 16
113
FTUS42 KFFC 022336
TAFCSG
TAF
KCSG 022336Z 0300/0324 36004KT P6SM SCT200
     FM030900 02004KT P6SM BKN150
     FM031500 04007KT P6SM BKN090
     FM032200 03007KT P6SM VCSH OVC060=

USA.gov is the U.S. government's official web portal to all federal, state and local government web resources and services.